Time;durP1;ratioP1;P1;durP2;ratioP2;P2;SDS_P1;SDS_P2;PMS_P1;PMS_P2;Temp;Humidity;BMP_temperature;BMP_pressure;BME280_temperature;BME280_humidity;BME280_pressure;Samples;Min_cycle;Max_cycle;Signal;HPM_P1;HPM_P2
2024/02/19 00:01:33;;;;;;;0.20;0.10;;;;;;;;;;4964068;28;20334;-87
2024/02/19 00:03:59;;;;;;;0.20;0.00;;;;;;;;;;4969259;28;20023;-82
2024/02/19 00:06:25;;;;;;;0.20;0.00;;;;;;;;;;5000064;28;20034;-82
2024/02/19 00:08:51;;;;;;;0.20;0.10;;;;;;;;;;4995179;28;20049;-84
2024/02/19 00:11:17;;;;;;;0.20;0.00;;;;;;;;;;4995608;28;20034;-82
2024/02/19 00:13:44;;;;;;;0.20;0.00;;;;;;;;;;4997817;28;20161;-85
2024/02/19 00:16:12;;;;;;;0.20;0.10;;;;;;;;;;4976610;28;20045;-86
2024/02/19 00:18:38;;;;;;;0.20;0.10;;;;;;;;;;4975799;28;20034;-83
2024/02/19 00:21:04;;;;;;;0.20;0.10;;;;;;;;;;4984513;28;20069;-83
2024/02/19 00:23:33;;;;;;;0.20;0.10;;;;;;;;;;4968293;28;20160;-83
2024/02/19 00:26:00;;;;;;;0.20;0.00;;;;;;;;;;4982729;28;20042;-81
2024/02/19 00:28:26;;;;;;;0.20;0.10;;;;;;;;;;4995227;28;20057;-81
2024/02/19 00:30:54;;;;;;;0.20;0.00;;;;;;;;;;4997751;28;20374;-85
2024/02/19 00:33:21;;;;;;;0.20;0.10;;;;;;;;;;4979521;28;20418;-86
2024/02/19 00:35:47;;;;;;;0.20;0.10;;;;;;;;;;4964998;28;20127;-86
2024/02/19 00:38:13;;;;;;;0.20;0.10;;;;;;;;;;4963504;28;20094;-86
2024/02/19 00:40:40;;;;;;;0.20;0.00;;;;;;;;;;4959440;28;20097;-84
2024/02/19 00:43:06;;;;;;;0.20;0.10;;;;;;;;;;4960627;28;20513;-85
2024/02/19 00:45:32;;;;;;;0.20;0.00;;;;;;;;;;4959666;28;20142;-85
2024/02/19 00:47:58;;;;;;;0.20;0.10;;;;;;;;;;4972864;28;20475;-86
2024/02/19 00:50:24;;;;;;;0.20;0.00;;;;;;;;;;4960150;28;20041;-82
2024/02/19 00:52:50;;;;;;;0.20;0.10;;;;;;;;;;4973708;28;20064;-86
2024/02/19 00:55:20;;;;;;;0.20;0.10;;;;;;;;;;4958372;28;20100;-86
2024/02/19 00:57:47;;;;;;;0.20;0.08;;;;;;;;;;4953189;28;20073;-85
2024/02/19 01:00:13;;;;;;;0.20;0.00;;;;;;;;;;4954363;28;20042;-88
2024/02/19 01:02:40;;;;;;;0.20;0.10;;;;;;;;;;4959343;28;20039;-86
2024/02/19 01:05:07;;;;;;;0.20;0.00;;;;;;;;;;4959911;28;20038;-83
2024/02/19 01:07:33;;;;;;;0.20;0.10;;;;;;;;;;4987796;28;20108;-82
2024/02/19 01:09:59;;;;;;;0.20;0.10;;;;;;;;;;4966697;28;20486;-88
2024/02/19 01:12:25;;;;;;;0.20;0.10;;;;;;;;;;4962642;28;20057;-85
2024/02/19 01:14:51;;;;;;;0.20;0.10;;;;;;;;;;4956666;28;21753;-83
2024/02/19 01:17:17;;;;;;;0.20;0.10;;;;;;;;;;4966989;23;20057;-82
2024/02/19 01:19:44;;;;;;;0.20;0.00;;;;;;;;;;4952656;28;20085;-82
2024/02/19 01:22:10;;;;;;;0.20;0.10;;;;;;;;;;4969286;28;20034;-82
2024/02/19 01:24:37;;;;;;;0.20;0.10;;;;;;;;;;4971189;28;20038;-82
2024/02/19 01:27:04;;;;;;;0.20;0.10;;;;;;;;;;4961982;28;20101;-84
2024/02/19 01:29:30;;;;;;;0.20;0.10;;;;;;;;;;4989649;28;20660;-84
2024/02/19 01:31:56;;;;;;;0.20;0.10;;;;;;;;;;4985789;28;20061;-83
2024/02/19 01:34:22;;;;;;;0.20;0.10;;;;;;;;;;4988570;28;20311;-82
2024/02/19 01:36:48;;;;;;;0.20;0.00;;;;;;;;;;4978900;28;20048;-83
2024/02/19 01:39:16;;;;;;;0.20;0.10;;;;;;;;;;4989468;28;20046;-82
2024/02/19 01:41:45;;;;;;;0.20;0.00;;;;;;;;;;4976111;28;20044;-84
2024/02/19 01:44:11;;;;;;;0.20;0.10;;;;;;;;;;4970316;28;20085;-83
2024/02/19 01:46:39;;;;;;;0.20;0.10;;;;;;;;;;4981488;28;20405;-83
2024/02/19 01:49:05;;;;;;;0.20;0.10;;;;;;;;;;4971619;28;20049;-79
2024/02/19 01:51:31;;;;;;;0.20;0.10;;;;;;;;;;4975747;28;20115;-82
2024/02/19 01:53:58;;;;;;;0.20;0.00;;;;;;;;;;4991962;28;20620;-85
2024/02/19 01:56:24;;;;;;;0.20;0.10;;;;;;;;;;4973445;28;20041;-85
2024/02/19 01:58:51;;;;;;;0.20;0.00;;;;;;;;;;4974698;28;20068;-86
2024/02/19 02:01:17;;;;;;;0.20;0.08;;;;;;;;;;4975389;28;20429;-82
2024/02/19 02:03:46;;;;;;;0.20;0.10;;;;;;;;;;4989802;28;20048;-84
2024/02/19 02:06:12;;;;;;;0.20;0.10;;;;;;;;;;4984666;28;20129;-85
2024/02/19 02:08:40;;;;;;;0.20;0.10;;;;;;;;;;4973109;28;20030;-84
2024/02/19 02:11:06;;;;;;;0.20;0.10;;;;;;;;;;4973028;28;20519;-84
2024/02/19 02:13:35;;;;;;;0.20;0.10;;;;;;;;;;4988510;28;20037;-81
2024/02/19 02:16:05;;;;;;;0.20;0.10;;;;;;;;;;4990034;28;20045;-86
2024/02/19 02:18:31;;;;;;;0.20;0.00;;;;;;;;;;4974149;28;20049;-80
2024/02/19 02:20:58;;;;;;;0.20;0.10;;;;;;;;;;4985953;28;20042;-84
2024/02/19 02:23:24;;;;;;;0.20;0.00;;;;;;;;;;4979052;28;20096;-82
2024/02/19 02:25:50;;;;;;;0.20;0.10;;;;;;;;;;4971657;28;20087;-81
2024/02/19 02:28:16;;;;;;;0.20;0.10;;;;;;;;;;4993618;28;20056;-83
2024/02/19 02:30:42;;;;;;;0.20;0.00;;;;;;;;;;4977326;28;20045;-86
2024/02/19 02:33:08;;;;;;;0.20;0.10;;;;;;;;;;4977139;28;20251;-81
2024/02/19 02:35:34;;;;;;;0.20;0.00;;;;;;;;;;4996179;28;20402;-82
2024/02/19 02:38:00;;;;;;;0.20;0.10;;;;;;;;;;4975235;28;20065;-83
2024/02/19 02:40:26;;;;;;;0.20;0.08;;;;;;;;;;4972971;28;21750;-81
2024/02/19 02:42:53;;;;;;;0.20;0.03;;;;;;;;;;4978076;28;20045;-82
2024/02/19 02:45:19;;;;;;;0.20;0.03;;;;;;;;;;4976061;28;20061;-82
2024/02/19 02:47:45;;;;;;;0.20;0.00;;;;;;;;;;4988599;28;20070;-83
2024/02/19 02:50:11;;;;;;;0.20;0.10;;;;;;;;;;4979484;28;20050;-81
2024/02/19 02:52:37;;;;;;;0.20;0.00;;;;;;;;;;4988745;28;20688;-82
2024/02/19 02:55:03;;;;;;;0.20;0.10;;;;;;;;;;4973444;28;20120;-83
2024/02/19 02:57:29;;;;;;;0.20;0.05;;;;;;;;;;4982875;28;20048;-82
2024/02/19 02:59:55;;;;;;;0.20;0.10;;;;;;;;;;4989416;28;20093;-82
2024/02/19 03:02:21;;;;;;;0.20;0.00;;;;;;;;;;4992445;28;20038;-81
2024/02/19 03:04:47;;;;;;;0.20;0.00;;;;;;;;;;4973709;28;20530;-81
2024/02/19 03:07:13;;;;;;;0.25;0.25;;;;;;;;;;4984795;28;20034;-84
2024/02/19 03:09:39;;;;;;;0.20;0.10;;;;;;;;;;4985234;28;20038;-82
2024/02/19 03:12:05;;;;;;;0.20;0.00;;;;;;;;;;4973632;28;20049;-83
2024/02/19 03:14:32;;;;;;;0.20;0.10;;;;;;;;;;4982942;28;20321;-81
2024/02/19 03:16:58;;;;;;;0.20;0.10;;;;;;;;;;4999916;28;20054;-81
2024/02/19 03:19:24;;;;;;;0.20;0.00;;;;;;;;;;4967184;28;20046;-81
2024/02/19 03:21:50;;;;;;;0.20;0.10;;;;;;;;;;4968129;28;20034;-83
2024/02/19 03:24:16;;;;;;;0.20;0.10;;;;;;;;;;4971687;28;20042;-81
2024/02/19 03:26:42;;;;;;;0.20;0.10;;;;;;;;;;4983652;28;20182;-83
2024/02/19 03:29:11;;;;;;;0.20;0.10;;;;;;;;;;4978489;28;20108;-82
2024/02/19 03:31:37;;;;;;;0.43;0.43;;;;;;;;;;4972007;28;20121;-81
2024/02/19 03:34:03;;;;;;;0.20;0.10;;;;;;;;;;4980757;28;20045;-82
2024/02/19 03:36:29;;;;;;;0.20;0.00;;;;;;;;;;4980748;28;20042;-80
2024/02/19 03:38:55;;;;;;;0.20;0.10;;;;;;;;;;4981449;28;20034;-82
2024/02/19 03:41:21;;;;;;;0.20;0.00;;;;;;;;;;4980689;28;21049;-81
2024/02/19 03:43:47;;;;;;;0.20;0.08;;;;;;;;;;4982097;28;20180;-82
2024/02/19 03:46:14;;;;;;;0.20;0.10;;;;;;;;;;4980097;28;20080;-81
2024/02/19 03:48:42;;;;;;;0.20;0.10;;;;;;;;;;4999669;28;20523;-81
2024/02/19 03:51:10;;;;;;;0.20;0.10;;;;;;;;;;4991945;28;20433;-81
2024/02/19 03:53:36;;;;;;;0.20;0.00;;;;;;;;;;4972357;28;20421;-82
2024/02/19 03:56:02;;;;;;;0.20;0.00;;;;;;;;;;4994128;28;20156;-80
2024/02/19 03:58:28;;;;;;;0.20;0.10;;;;;;;;;;4971776;28;20038;-81
2024/02/19 04:00:54;;;;;;;0.20;0.00;;;;;;;;;;4968676;28;20045;-81
2024/02/19 04:03:20;;;;;;;0.20;0.10;;;;;;;;;;4972242;28;20122;-82
2024/02/19 04:05:46;;;;;;;0.20;0.10;;;;;;;;;;4989011;28;20050;-81
2024/02/19 04:08:12;;;;;;;0.20;0.03;;;;;;;;;;4986356;28;20038;-80
2024/02/19 04:10:38;;;;;;;0.20;0.10;;;;;;;;;;4972967;28;20042;-82
2024/02/19 04:13:04;;;;;;;0.20;0.10;;;;;;;;;;4972538;28;20176;-81
2024/02/19 04:15:30;;;;;;;0.20;0.00;;;;;;;;;;4972564;28;20520;-81
2024/02/19 04:17:56;;;;;;;0.20;0.10;;;;;;;;;;4964990;28;20045;-81
2024/02/19 04:20:22;;;;;;;0.20;0.03;;;;;;;;;;4989278;28;20101;-81
2024/02/19 04:22:48;;;;;;;0.20;0.10;;;;;;;;;;4973097;28;21083;-81
2024/02/19 04:25:14;;;;;;;0.20;0.10;;;;;;;;;;4988930;28;20046;-79
2024/02/19 04:27:40;;;;;;;0.20;0.10;;;;;;;;;;4992717;28;20057;-80
2024/02/19 04:30:07;;;;;;;0.20;0.10;;;;;;;;;;4988635;28;20030;-81
2024/02/19 04:32:33;;;;;;;0.20;0.00;;;;;;;;;;4973395;28;20089;-82
2024/02/19 04:34:59;;;;;;;0.20;0.10;;;;;;;;;;4971848;28;20084;-81
2024/02/19 04:37:25;;;;;;;0.20;0.05;;;;;;;;;;4986694;28;20050;-80
2024/02/19 04:39:51;;;;;;;0.20;0.00;;;;;;;;;;4987579;28;20046;-80
2024/02/19 04:42:17;;;;;;;0.20;0.10;;;;;;;;;;4987095;28;20046;-81
2024/02/19 04:44:43;;;;;;;0.20;0.00;;;;;;;;;;4985719;28;20168;-81
2024/02/19 04:47:09;;;;;;;0.20;0.10;;;;;;;;;;4989502;28;20149;-81
2024/02/19 04:49:35;;;;;;;0.20;0.10;;;;;;;;;;4975152;28;20519;-80
2024/02/19 04:52:01;;;;;;;0.20;0.00;;;;;;;;;;4970885;28;20038;-81
2024/02/19 04:54:28;;;;;;;0.47;0.47;;;;;;;;;;4994699;28;20122;-81
2024/02/19 04:56:54;;;;;;;0.20;0.08;;;;;;;;;;4970982;28;20053;-81
2024/02/19 04:59:20;;;;;;;0.20;0.10;;;;;;;;;;4972743;28;21030;-80
2024/02/19 05:01:47;;;;;;;0.20;0.10;;;;;;;;;;4977010;28;20041;-81
2024/02/19 05:04:13;;;;;;;0.20;0.10;;;;;;;;;;4973408;28;20042;-81
2024/02/19 05:06:39;;;;;;;0.20;0.03;;;;;;;;;;4970629;28;20498;-81
2024/02/19 05:09:05;;;;;;;0.20;0.10;;;;;;;;;;4984693;28;20046;-81
2024/02/19 05:11:31;;;;;;;0.20;0.10;;;;;;;;;;4972875;28;20037;-81
2024/02/19 05:13:57;;;;;;;0.20;0.00;;;;;;;;;;4985212;28;20061;-81
2024/02/19 05:16:24;;;;;;;0.20;0.10;;;;;;;;;;4975149;28;20046;-81
2024/02/19 05:18:50;;;;;;;0.20;0.13;;;;;;;;;;4990416;28;20405;-81
2024/02/19 05:21:16;;;;;;;0.20;0.10;;;;;;;;;;4989015;28;20046;-83
2024/02/19 05:23:42;;;;;;;0.20;0.10;;;;;;;;;;4975416;28;20045;-80
2024/02/19 05:26:08;;;;;;;0.20;0.10;;;;;;;;;;4973327;28;20053;-81
2024/02/19 05:28:34;;;;;;;0.20;0.10;;;;;;;;;;4987131;28;20501;-80
2024/02/19 05:31:01;;;;;;;0.20;0.10;;;;;;;;;;4992385;28;20038;-82
2024/02/19 05:33:28;;;;;;;0.38;0.38;;;;;;;;;;4971273;28;20034;-80
2024/02/19 05:35:54;;;;;;;0.20;0.00;;;;;;;;;;4989027;28;20049;-81
2024/02/19 05:38:20;;;;;;;0.20;0.10;;;;;;;;;;4986709;28;20034;-80
2024/02/19 05:40:46;;;;;;;0.20;0.00;;;;;;;;;;4986593;28;20038;-80
2024/02/19 05:43:12;;;;;;;0.20;0.08;;;;;;;;;;4983149;28;20052;-80
2024/02/19 05:45:38;;;;;;;0.20;0.00;;;;;;;;;;4983863;28;20106;-80
2024/02/19 05:48:05;;;;;;;0.20;0.10;;;;;;;;;;4980252;28;20049;-81
2024/02/19 05:50:32;;;;;;;0.20;0.10;;;;;;;;;;4981599;28;20565;-81
2024/02/19 05:52:58;;;;;;;0.20;0.10;;;;;;;;;;4979788;28;20046;-81
2024/02/19 05:55:24;;;;;;;0.20;0.10;;;;;;;;;;4965365;28;20049;-78
2024/02/19 05:57:50;;;;;;;0.20;0.00;;;;;;;;;;4980563;28;20410;-81
2024/02/19 06:00:16;;;;;;;0.20;0.00;;;;;;;;;;4981681;28;20342;-80
2024/02/19 06:02:43;;;;;;;0.20;0.00;;;;;;;;;;4980057;28;20061;-80
2024/02/19 06:05:10;;;;;;;0.20;0.10;;;;;;;;;;4965353;28;20123;-80
2024/02/19 06:07:36;;;;;;;0.20;0.10;;;;;;;;;;4994816;28;20073;-80
2024/02/19 06:10:02;;;;;;;0.20;0.10;;;;;;;;;;4962384;28;20038;-80
2024/02/19 06:12:28;;;;;;;0.20;0.10;;;;;;;;;;4973371;28;20050;-81
2024/02/19 06:14:54;;;;;;;0.20;0.10;;;;;;;;;;4978550;28;21711;-81
2024/02/19 06:17:20;;;;;;;0.20;0.10;;;;;;;;;;4982113;28;20049;-80
2024/02/19 06:19:46;;;;;;;0.20;0.10;;;;;;;;;;4979078;28;20049;-80
2024/02/19 06:22:12;;;;;;;0.20;0.10;;;;;;;;;;4977451;28;20076;-79
2024/02/19 06:24:38;;;;;;;0.20;0.10;;;;;;;;;;4977354;28;22279;-80
2024/02/19 06:27:06;;;;;;;0.20;0.10;;;;;;;;;;4978686;28;20050;-81
2024/02/19 06:29:33;;;;;;;0.20;0.10;;;;;;;;;;4978076;28;20058;-83
2024/02/19 06:31:59;;;;;;;0.20;0.10;;;;;;;;;;4982204;28;20471;-83
2024/02/19 06:34:28;;;;;;;0.20;0.10;;;;;;;;;;4980993;28;20307;-82
2024/02/19 06:36:54;;;;;;;0.20;0.10;;;;;;;;;;4978008;28;20309;-82
2024/02/19 06:39:20;;;;;;;0.20;0.10;;;;;;;;;;4980407;28;20040;-83
2024/02/19 06:41:47;;;;;;;0.20;0.10;;;;;;;;;;4975168;28;20100;-82
2024/02/19 06:44:13;;;;;;;0.20;0.10;;;;;;;;;;4975862;28;20464;-83
2024/02/19 06:46:39;;;;;;;0.85;0.85;;;;;;;;;;4996025;28;20180;-83
2024/02/19 06:49:05;;;;;;;0.20;0.10;;;;;;;;;;4995813;28;20053;-82
2024/02/19 06:51:31;;;;;;;0.20;0.10;;;;;;;;;;4972774;28;20116;-84
2024/02/19 06:53:57;;;;;;;0.20;0.00;;;;;;;;;;4979386;28;20043;-82
2024/02/19 06:56:23;;;;;;;0.20;0.10;;;;;;;;;;4978006;28;20037;-83
2024/02/19 06:58:49;;;;;;;0.20;0.00;;;;;;;;;;4976471;28;20038;-83
2024/02/19 07:01:15;;;;;;;0.20;0.00;;;;;;;;;;4970711;28;20114;-83
2024/02/19 07:03:42;;;;;;;0.20;0.10;;;;;;;;;;4987809;28;20045;-83
2024/02/19 07:06:08;;;;;;;0.20;0.00;;;;;;;;;;4989419;28;20407;-83
2024/02/19 07:08:34;;;;;;;0.20;0.00;;;;;;;;;;4975872;28;20061;-83
2024/02/19 07:11:00;;;;;;;0.20;0.10;;;;;;;;;;4972929;28;20033;-83
2024/02/19 07:13:26;;;;;;;0.20;0.00;;;;;;;;;;4963168;28;20088;-83
2024/02/19 07:18:21;;;;;;;0.20;0.00;;;;;;;;;;4970131;28;20122;-87
2024/02/19 07:20:47;;;;;;;0.20;0.10;;;;;;;;;;4965450;28;20498;-88
2024/02/19 07:23:13;;;;;;;0.20;0.00;;;;;;;;;;4968557;28;20042;-87
2024/02/19 07:25:39;;;;;;;0.20;0.10;;;;;;;;;;4970774;28;20098;-86
2024/02/19 07:28:05;;;;;;;0.20;0.10;;;;;;;;;;4989281;28;20071;-85
2024/02/19 07:30:32;;;;;;;0.20;0.10;;;;;;;;;;4958014;28;20050;-85
2024/02/19 07:32:58;;;;;;;0.20;0.10;;;;;;;;;;4972277;28;20042;-85
2024/02/19 07:35:24;;;;;;;0.20;0.00;;;;;;;;;;4983143;28;20356;-86
2024/02/19 07:37:50;;;;;;;0.20;0.10;;;;;;;;;;4955038;28;20490;-86
2024/02/19 07:40:16;;;;;;;0.20;0.10;;;;;;;;;;4970546;28;20043;-87
2024/02/19 07:42:42;;;;;;;0.20;0.10;;;;;;;;;;4954936;28;20507;-87
2024/02/19 07:45:08;;;;;;;0.20;0.10;;;;;;;;;;4971576;28;20049;-88
2024/02/19 07:47:34;;;;;;;0.20;0.00;;;;;;;;;;4958228;28;20833;-86
2024/02/19 07:50:00;;;;;;;0.20;0.00;;;;;;;;;;4957662;28;20043;-88
2024/02/19 07:52:26;;;;;;;0.20;0.00;;;;;;;;;;4957841;28;20046;-85
2024/02/19 07:54:52;;;;;;;0.20;0.03;;;;;;;;;;4964502;28;20412;-84
2024/02/19 07:57:18;;;;;;;0.20;0.10;;;;;;;;;;4962127;28;20042;-87
2024/02/19 07:59:44;;;;;;;0.20;0.10;;;;;;;;;;4977198;28;20038;-87
2024/02/19 08:02:11;;;;;;;0.20;0.10;;;;;;;;;;4978801;28;20042;-86
2024/02/19 08:04:37;;;;;;;0.20;0.00;;;;;;;;;;4980888;28;20042;-85
2024/02/19 08:07:03;;;;;;;0.20;0.10;;;;;;;;;;4971834;28;20050;-86
2024/02/19 08:09:29;;;;;;;0.20;0.10;;;;;;;;;;4957102;28;20034;-86
2024/02/19 08:11:57;;;;;;;0.20;0.00;;;;;;;;;;4960659;28;20123;-85
2024/02/19 08:14:26;;;;;;;1.45;0.55;;;;;;;;;;4957951;28;20046;-85
2024/02/19 08:16:59;;;;;;;0.20;0.00;;;;;;;;;;4958760;28;20085;-91
2024/02/19 08:19:25;;;;;;;0.20;0.10;;;;;;;;;;4968734;28;20049;-87
2024/02/19 08:21:51;;;;;;;0.20;0.10;;;;;;;;;;4973448;28;20609;-90
2024/02/19 08:24:17;;;;;;;0.20;0.10;;;;;;;;;;4959545;28;20066;-87
2024/02/19 08:26:43;;;;;;;0.20;0.10;;;;;;;;;;4958631;28;20034;-85
2024/02/19 08:29:09;;;;;;;0.20;0.00;;;;;;;;;;4960451;28;20046;-87
2024/02/19 08:31:35;;;;;;;0.20;0.00;;;;;;;;;;4961057;28;20041;-87
2024/02/19 08:34:01;;;;;;;0.20;0.10;;;;;;;;;;4973671;28;20565;-86
2024/02/19 08:36:27;;;;;;;0.40;0.30;;;;;;;;;;4955690;28;20053;-84
2024/02/19 08:38:54;;;;;;;0.20;0.10;;;;;;;;;;4955574;28;20309;-86
2024/02/19 08:41:20;;;;;;;0.20;0.15;;;;;;;;;;4957335;28;20402;-88
2024/02/19 08:43:46;;;;;;;0.20;0.00;;;;;;;;;;4971282;28;20074;-88
2024/02/19 08:46:12;;;;;;;0.20;0.10;;;;;;;;;;4990434;28;20068;-87
2024/02/19 08:48:38;;;;;;;0.20;0.00;;;;;;;;;;4960575;28;20422;-87
2024/02/19 08:51:04;;;;;;;0.20;0.00;;;;;;;;;;4974192;28;20409;-86
2024/02/19 08:53:30;;;;;;;0.20;0.10;;;;;;;;;;4977253;28;20629;-88
2024/02/19 08:55:56;;;;;;;0.20;0.10;;;;;;;;;;4974331;28;20592;-87
2024/02/19 08:58:22;;;;;;;0.20;0.00;;;;;;;;;;4958792;28;20263;-85
2024/02/19 09:00:51;;;;;;;0.20;0.10;;;;;;;;;;4959712;28;20085;-85
2024/02/19 09:03:17;;;;;;;0.20;0.00;;;;;;;;;;4977086;28;20042;-86
2024/02/19 09:05:43;;;;;;;0.20;0.10;;;;;;;;;;4962548;28;20073;-86
2024/02/19 09:08:10;;;;;;;0.20;0.10;;;;;;;;;;4984962;28;20161;-87
2024/02/19 09:10:37;;;;;;;0.20;0.10;;;;;;;;;;4972669;28;20038;-86
2024/02/19 09:13:03;;;;;;;0.20;0.10;;;;;;;;;;4960081;28;20190;-87
2024/02/19 09:15:29;;;;;;;0.20;0.15;;;;;;;;;;4983689;28;20053;-86
2024/02/19 09:17:55;;;;;;;0.20;0.10;;;;;;;;;;4978784;28;20497;-86
2024/02/19 09:20:21;;;;;;;0.20;0.10;;;;;;;;;;4978446;28;20054;-88
2024/02/19 09:22:47;;;;;;;0.20;0.10;;;;;;;;;;4969776;28;20041;-86
2024/02/19 09:25:13;;;;;;;1.65;1.55;;;;;;;;;;4956571;28;20410;-83
2024/02/19 09:27:40;;;;;;;0.20;0.10;;;;;;;;;;4973243;28;20046;-88
2024/02/19 09:30:07;;;;;;;0.20;0.10;;;;;;;;;;4976433;28;20849;-86
2024/02/19 09:32:33;;;;;;;0.20;0.10;;;;;;;;;;4959000;28;20053;-86
2024/02/19 09:35:01;;;;;;;0.20;0.10;;;;;;;;;;4963586;28;20516;-89
2024/02/19 09:37:27;;;;;;;0.20;0.10;;;;;;;;;;4975499;28;20046;-82
2024/02/19 09:39:59;;;;;;;0.20;0.10;;;;;;;;;;4961669;28;20483;-84
2024/02/19 09:42:29;;;;;;;0.20;0.10;;;;;;;;;;4964865;28;20537;-86
2024/02/19 09:44:55;;;;;;;0.20;0.10;;;;;;;;;;4969358;28;20516;-83
2024/02/19 09:47:22;;;;;;;0.20;0.10;;;;;;;;;;5005511;28;20076;-86
2024/02/19 09:49:49;;;;;;;0.20;0.10;;;;;;;;;;4958446;28;20034;-86
2024/02/19 09:52:25;;;;;;;0.20;0.10;;;;;;;;;;4974129;28;20042;-85
2024/02/19 09:54:53;;;;;;;0.20;0.10;;;;;;;;;;4974423;28;20038;-86
2024/02/19 09:57:19;;;;;;;0.20;0.10;;;;;;;;;;4966954;28;20046;-88
2024/02/19 09:59:45;;;;;;;0.32;0.20;;;;;;;;;;4963770;28;20049;-87
2024/02/19 10:02:14;;;;;;;0.57;0.57;;;;;;;;;;4966018;28;20098;-88
2024/02/19 10:04:40;;;;;;;0.20;0.05;;;;;;;;;;4971518;28;20048;-85
2024/02/19 10:07:06;;;;;;;0.20;0.00;;;;;;;;;;4957237;28;20453;-84
2024/02/19 10:09:32;;;;;;;0.70;0.60;;;;;;;;;;4959005;28;20048;-85
2024/02/19 10:11:58;;;;;;;0.20;0.10;;;;;;;;;;4969525;28;20033;-85
2024/02/19 10:14:25;;;;;;;0.25;0.20;;;;;;;;;;4978002;28;20034;-87
2024/02/19 10:16:51;;;;;;;0.20;0.10;;;;;;;;;;4971038;28;20053;-86
2024/02/19 10:19:17;;;;;;;0.20;0.10;;;;;;;;;;4976026;28;20066;-86
2024/02/19 10:21:48;;;;;;;0.20;0.10;;;;;;;;;;4976647;28;20058;-86
2024/02/19 10:24:16;;;;;;;0.20;0.03;;;;;;;;;;4950870;28;20049;-86
2024/02/19 10:26:42;;;;;;;0.20;0.10;;;;;;;;;;5001290;28;20654;-87
2024/02/19 10:29:08;;;;;;;0.20;0.10;;;;;;;;;;4981191;28;20053;-87
2024/02/19 10:31:35;;;;;;;0.20;0.10;;;;;;;;;;4953826;28;20128;-82
2024/02/19 10:34:01;;;;;;;0.20;0.10;;;;;;;;;;4970608;28;20034;-86
2024/02/19 10:36:28;;;;;;;0.32;0.25;;;;;;;;;;4969452;28;20409;-84
2024/02/19 10:38:54;;;;;;;0.20;0.00;;;;;;;;;;4974553;28;20102;-86
2024/02/19 10:41:21;;;;;;;0.20;0.00;;;;;;;;;;4977543;28;20046;-88
2024/02/19 10:43:47;;;;;;;0.20;0.10;;;;;;;;;;4975065;28;20046;-89
2024/02/19 10:46:19;;;;;;;0.30;0.20;;;;;;;;;;4958597;28;20391;-85
2024/02/19 10:48:49;;;;;;;0.20;0.15;;;;;;;;;;4989583;28;20141;-88
2024/02/19 10:51:17;;;;;;;0.20;0.10;;;;;;;;;;4963119;28;20093;-87
2024/02/19 10:53:47;;;;;;;0.20;0.10;;;;;;;;;;4973403;28;20506;-88
2024/02/19 10:56:19;;;;;;;0.20;0.05;;;;;;;;;;4974254;28;20505;-86
2024/02/19 10:59:03;;;;;;;0.20;0.10;;;;;;;;;;4980609;28;20488;-84
2024/02/19 11:01:48;;;;;;;0.20;0.10;;;;;;;;;;4973588;28;20522;-84
2024/02/19 11:04:23;;;;;;;0.20;0.00;;;;;;;;;;4974394;28;20035;-86
2024/02/19 11:06:56;;;;;;;0.20;0.10;;;;;;;;;;4961727;28;20034;-88
2024/02/19 11:09:22;;;;;;;0.20;0.10;;;;;;;;;;4974514;28;20038;-90
2024/02/19 11:11:53;;;;;;;0.20;0.10;;;;;;;;;;4982281;28;20529;-87
2024/02/19 11:14:46;;;;;;;0.20;0.10;;;;;;;;;;4961902;28;20035;-86
2024/02/19 11:17:12;;;;;;;0.20;0.10;;;;;;;;;;4964890;28;20076;-88
2024/02/19 11:19:38;;;;;;;0.20;0.13;;;;;;;;;;4963718;28;20069;-84
2024/02/19 11:22:09;;;;;;;0.20;0.10;;;;;;;;;;4970364;28;20125;-88
2024/02/19 11:24:38;;;;;;;0.20;0.10;;;;;;;;;;5008073;28;20218;-86
2024/02/19 11:27:05;;;;;;;0.63;0.57;;;;;;;;;;4963387;28;20049;-87
2024/02/19 11:29:32;;;;;;;0.25;0.25;;;;;;;;;;4961302;28;20034;-88
2024/02/19 11:32:02;;;;;;;0.20;0.15;;;;;;;;;;4995752;28;20040;-85
2024/02/19 11:34:29;;;;;;;0.63;0.57;;;;;;;;;;4965636;28;20035;-88
2024/02/19 11:37:05;;;;;;;0.20;0.10;;;;;;;;;;4974089;28;20052;-87
2024/02/19 11:39:31;;;;;;;0.20;0.10;;;;;;;;;;4958912;28;20208;-87
2024/02/19 11:42:01;;;;;;;0.20;0.17;;;;;;;;;;4980452;28;20049;-83
2024/02/19 11:44:31;;;;;;;0.20;0.10;;;;;;;;;;4996728;28;20054;-84
2024/02/19 11:46:58;;;;;;;0.20;0.10;;;;;;;;;;4970747;28;20117;-89
2024/02/19 11:49:24;;;;;;;0.20;0.10;;;;;;;;;;4971975;28;20053;-91
2024/02/19 11:51:50;;;;;;;0.20;0.10;;;;;;;;;;4978320;28;20038;-86
2024/02/19 11:54:17;;;;;;;0.20;0.10;;;;;;;;;;4964191;28;20046;-87
2024/02/19 11:56:50;;;;;;;0.20;0.10;;;;;;;;;;4962487;28;20062;-88
2024/02/19 11:59:16;;;;;;;0.20;0.10;;;;;;;;;;4977567;28;20054;-87
2024/02/19 12:01:46;;;;;;;0.20;0.10;;;;;;;;;;4957356;28;20073;-86
2024/02/19 12:04:15;;;;;;;0.20;0.10;;;;;;;;;;4972723;28;20038;-86
2024/02/19 12:06:42;;;;;;;0.20;0.10;;;;;;;;;;4974816;28;20073;-86
2024/02/19 12:09:08;;;;;;;0.45;0.45;;;;;;;;;;4962238;28;20076;-83
2024/02/19 12:11:35;;;;;;;0.32;0.08;;;;;;;;;;4970055;28;20097;-83
2024/02/19 12:14:04;;;;;;;0.20;0.03;;;;;;;;;;4962373;28;20037;-85
2024/02/19 12:16:31;;;;;;;0.20;0.10;;;;;;;;;;4960304;28;20037;-86
2024/02/19 12:18:57;;;;;;;0.35;0.13;;;;;;;;;;4984594;28;20652;-88
2024/02/19 12:21:23;;;;;;;0.20;0.00;;;;;;;;;;4975293;28;20253;-87
2024/02/19 12:23:52;;;;;;;0.20;0.10;;;;;;;;;;4972333;28;20124;-85
2024/02/19 12:26:21;;;;;;;0.20;0.10;;;;;;;;;;4976130;28;20046;-89
2024/02/19 12:28:50;;;;;;;0.65;0.65;;;;;;;;;;4964462;28;20571;-89
2024/02/19 12:31:16;;;;;;;0.20;0.10;;;;;;;;;;4955492;28;20521;-83
2024/02/19 12:33:43;;;;;;;0.20;0.10;;;;;;;;;;4961285;28;20053;-88
2024/02/19 12:36:11;;;;;;;0.20;0.10;;;;;;;;;;4975985;28;20133;-89
2024/02/19 12:38:41;;;;;;;0.30;0.17;;;;;;;;;;4966605;28;20050;-86
2024/02/19 12:41:11;;;;;;;0.20;0.00;;;;;;;;;;4973844;28;20054;-89
2024/02/19 12:43:40;;;;;;;0.20;0.10;;;;;;;;;;4970270;28;20417;-87
2024/02/19 12:46:11;;;;;;;0.20;0.00;;;;;;;;;;4989647;28;20078;-87
2024/02/19 12:48:39;;;;;;;0.20;0.10;;;;;;;;;;4952571;28;20098;-87
2024/02/19 12:51:06;;;;;;;0.20;0.10;;;;;;;;;;4952109;28;20034;-88
2024/02/19 12:53:35;;;;;;;0.20;0.10;;;;;;;;;;4957226;28;20048;-86
2024/02/19 12:56:01;;;;;;;0.20;0.10;;;;;;;;;;4969151;28;20045;-90
2024/02/19 12:58:28;;;;;;;0.20;0.10;;;;;;;;;;4978552;28;20109;-90
2024/02/19 13:00:54;;;;;;;0.20;0.10;;;;;;;;;;4970202;28;20042;-89
2024/02/19 13:03:20;;;;;;;0.20;0.00;;;;;;;;;;4959115;28;20061;-86
2024/02/19 13:05:47;;;;;;;0.20;0.10;;;;;;;;;;4973843;28;20035;-91
2024/02/19 13:08:15;;;;;;;0.20;0.10;;;;;;;;;;4961096;28;20200;-88
2024/02/19 13:10:41;;;;;;;0.20;0.05;;;;;;;;;;4967754;28;20235;-88
2024/02/19 13:13:16;;;;;;;0.50;0.50;;;;;;;;;;4960230;28;20034;-86
2024/02/19 13:15:44;;;;;;;0.20;0.10;;;;;;;;;;4969615;28;20057;-88
2024/02/19 13:18:10;;;;;;;1.33;0.40;;;;;;;;;;4956476;28;20050;-88
2024/02/19 13:20:37;;;;;;;0.20;0.10;;;;;;;;;;4961641;28;20177;-88
2024/02/19 13:23:03;;;;;;;0.20;0.10;;;;;;;;;;4976158;28;20095;-83
2024/02/19 13:25:29;;;;;;;0.20;0.10;;;;;;;;;;4956076;28;20577;-86
2024/02/19 13:27:55;;;;;;;0.20;0.10;;;;;;;;;;4960477;28;20038;-85
2024/02/19 13:30:21;;;;;;;0.20;0.10;;;;;;;;;;4955067;28;20041;-87
2024/02/19 13:32:48;;;;;;;0.20;0.10;;;;;;;;;;4952385;28;20045;-89
2024/02/19 13:35:15;;;;;;;0.20;0.05;;;;;;;;;;4958612;28;20042;-86
2024/02/19 13:37:47;;;;;;;0.20;0.10;;;;;;;;;;4973820;28;20053;-87
2024/02/19 13:40:13;;;;;;;0.20;0.10;;;;;;;;;;4969521;28;20049;-87
2024/02/19 13:42:40;;;;;;;0.20;0.10;;;;;;;;;;4978302;28;20332;-86
2024/02/19 13:45:09;;;;;;;0.35;0.22;;;;;;;;;;4974184;28;20045;-83
2024/02/19 13:47:39;;;;;;;0.20;0.10;;;;;;;;;;4973472;28;20050;-85
2024/02/19 13:50:06;;;;;;;0.20;0.10;;;;;;;;;;4955551;28;20640;-87
2024/02/19 13:52:33;;;;;;;0.20;0.10;;;;;;;;;;4978518;28;20041;-86
2024/02/19 13:54:59;;;;;;;0.20;0.10;;;;;;;;;;4976215;28;20449;-87
2024/02/19 13:57:25;;;;;;;0.20;0.10;;;;;;;;;;4995943;28;20117;-85
2024/02/19 13:59:53;;;;;;;0.20;0.00;;;;;;;;;;4979907;28;20041;-83
2024/02/19 14:02:22;;;;;;;0.20;0.10;;;;;;;;;;4966361;28;20616;-87
2024/02/19 14:04:48;;;;;;;0.20;0.10;;;;;;;;;;4966915;28;20042;-90
2024/02/19 14:07:14;;;;;;;0.20;0.10;;;;;;;;;;4978993;28;20042;-86
2024/02/19 14:09:41;;;;;;;0.20;0.10;;;;;;;;;;4949319;28;20110;-84
2024/02/19 14:12:08;;;;;;;0.28;0.28;;;;;;;;;;4976835;28;20045;-87
2024/02/19 14:14:35;;;;;;;0.25;0.10;;;;;;;;;;4949684;28;20065;-82
2024/02/19 14:17:01;;;;;;;0.22;0.13;;;;;;;;;;4956746;28;20486;-86
2024/02/19 14:19:27;;;;;;;0.38;0.30;;;;;;;;;;4977911;28;20107;-81
2024/02/19 14:21:54;;;;;;;0.20;0.10;;;;;;;;;;4995646;28;20046;-89
2024/02/19 14:24:20;;;;;;;0.20;0.00;;;;;;;;;;4955502;28;20048;-84
2024/02/19 14:26:48;;;;;;;0.20;0.00;;;;;;;;;;4953280;28;20046;-86
2024/02/19 14:29:15;;;;;;;0.22;0.20;;;;;;;;;;4976328;28;20034;-88
2024/02/19 14:31:41;;;;;;;0.20;0.05;;;;;;;;;;4960905;28;20034;-85
2024/02/19 14:34:07;;;;;;;3.33;0.43;;;;;;;;;;4960204;28;20094;-89
2024/02/19 14:36:33;;;;;;;0.20;0.10;;;;;;;;;;4957398;28;20037;-88
2024/02/19 14:39:00;;;;;;;0.20;0.10;;;;;;;;;;4954140;28;20042;-88
2024/02/19 14:41:26;;;;;;;0.20;0.10;;;;;;;;;;4956505;28;20042;-87
2024/02/19 14:43:52;;;;;;;0.20;0.10;;;;;;;;;;4973771;28;20039;-85